createdAt,value
2022-09-20T00:01:06.349Z,77.55
2022-09-20T00:03:34.102Z,78.19
2022-09-20T00:06:02.808Z,78.09
2022-09-20T00:08:30.413Z,79.19
2022-09-20T00:11:03.090Z,79.30
2022-09-20T00:13:31.835Z,79.10
2022-09-20T00:15:59.388Z,79.36
2022-09-20T00:18:27.673Z,78.93
2022-09-20T00:20:55.133Z,78.93
2022-09-20T00:23:22.707Z,78.48
2022-09-20T00:25:57.568Z,78.38
2022-09-20T00:28:27.128Z,79.97
2022-09-20T00:30:55.589Z,80.13
2022-09-20T00:33:24.081Z,80.80
2022-09-20T00:35:50.701Z,82.08
2022-09-20T00:38:18.304Z,83.16
2022-09-20T00:40:45.936Z,81.65
2022-09-20T00:43:15.141Z,80.84
2022-09-20T00:45:44.454Z,81.92
2022-09-20T00:48:14.477Z,82.31
2022-09-20T00:50:44.253Z,81.68
2022-09-20T00:53:14.324Z,81.03
2022-09-20T00:55:45.436Z,80.40
2022-09-20T00:58:13.462Z,80.33
2022-09-20T01:00:41.141Z,79.60
2022-09-20T01:03:11.107Z,80.70
2022-09-20T01:05:39.235Z,80.11
2022-09-20T01:08:07.107Z,80.49
2022-09-20T01:10:34.543Z,80.85
2022-09-20T01:13:01.990Z,80.89
2022-09-20T01:15:31.079Z,80.30
2022-09-20T01:17:59.908Z,80.66
2022-09-20T01:20:30.963Z,80.72
2022-09-20T01:23:15.066Z,81.18
2022-09-20T01:26:18.488Z,81.23
2022-09-20T01:28:48.507Z,80.49
2022-09-20T01:31:18.907Z,81.48
2022-09-20T01:33:49.420Z,80.46
2022-09-20T01:36:20.124Z,80.18
2022-09-20T01:38:53.813Z,80.76
2022-09-20T01:41:25.494Z,81.65
2022-09-20T01:43:56.188Z,81.33
2022-09-20T01:46:30.983Z,82.35
2022-09-20T01:49:09.461Z,81.79
2022-09-20T01:52:17.831Z,81.60
2022-09-20T01:55:01.831Z,82.09
2022-09-20T01:58:07.032Z,82.55
2022-09-20T02:00:40.011Z,82.55
2022-09-20T02:03:24.690Z,82.34
2022-09-20T02:06:12.711Z,81.65
2022-09-20T02:09:08.062Z,81.90
2022-09-20T02:11:54.921Z,82.91
2022-09-20T02:14:32.208Z,82.67
2022-09-20T02:17:08.191Z,81.64
2022-09-20T02:20:00.554Z,82.24
2022-09-20T02:22:36.748Z,82.88
2022-09-20T02:25:13.517Z,83.28
2022-09-20T02:27:48.991Z,84.57
2022-09-20T02:30:33.325Z,84.58
2022-09-20T02:33:21.995Z,85.50
2022-09-20T02:36:08.652Z,85.87
2022-09-20T02:38:43.745Z,86.15
2022-09-20T02:41:27.213Z,86.86
2022-09-20T02:43:59.196Z,86.52
2022-09-20T02:46:31.371Z,85.49
2022-09-20T02:49:04.142Z,83.93
2022-09-20T02:51:37.419Z,84.75
2022-09-20T02:54:13.915Z,83.85
2022-09-20T02:56:46.912Z,84.29
2022-09-20T02:59:23.788Z,83.14
2022-09-20T03:02:00.882Z,83.53
2022-09-20T03:04:38.971Z,83.14
2022-09-20T03:07:11.485Z,83.99
2022-09-20T03:09:44.336Z,83.91
2022-09-20T03:12:19.156Z,84.46
2022-09-20T03:14:51.466Z,84.76
2022-09-20T03:17:23.815Z,84.60
2022-09-20T03:20:06.232Z,84.34
2022-09-20T03:22:42.720Z,84.30
2022-09-20T03:25:26.107Z,84.58
2022-09-20T03:28:02.827Z,84.71
2022-09-20T03:30:40.233Z,84.62
2022-09-20T03:33:13.136Z,84.41
2022-09-20T03:35:56.297Z,83.94
2022-09-20T03:38:34.448Z,82.48
2022-09-20T03:41:11.528Z,82.80
2022-09-20T03:43:53.695Z,83.09
2022-09-20T03:46:23.395Z,83.51
2022-09-20T03:49:28.194Z,84.63
2022-09-20T03:52:02.138Z,84.55
2022-09-20T03:54:47.938Z,83.40
2022-09-20T03:57:36.228Z,83.55
2022-09-20T04:00:10.715Z,83.81
2022-09-20T04:02:52.138Z,84.16
2022-09-20T04:05:25.585Z,83.98
2022-09-20T04:08:04.308Z,83.43
2022-09-20T04:10:40.734Z,84.95
2022-09-20T04:13:18.709Z,85.33
2022-09-20T04:15:57.428Z,85.97
2022-09-20T04:18:31.753Z,85.38
2022-09-20T04:21:04.192Z,84.71
2022-09-20T04:23:40.878Z,84.18
2022-09-20T04:26:08.924Z,83.98
2022-09-20T04:28:41.694Z,83.21
2022-09-20T04:31:26.889Z,82.84
2022-09-20T04:33:57.309Z,83.65
2022-09-20T04:36:50.983Z,82.80
2022-09-20T04:39:29.479Z,83.68
2022-09-20T04:42:28.648Z,82.87
2022-09-20T04:45:13.969Z,82.51
2022-09-20T04:48:13.616Z,83.47
2022-09-20T04:51:04.583Z,84.30
2022-09-20T04:53:58.337Z,84.42
2022-09-20T04:56:41.699Z,83.86
2022-09-20T04:59:10.585Z,83.74
2022-09-20T05:02:30.234Z,83.28
2022-09-20T05:05:40.828Z,84.17
2022-09-20T05:08:48.505Z,83.42
2022-09-20T05:11:57.202Z,83.25
2022-09-20T05:14:48.079Z,82.67
2022-09-20T05:17:25.178Z,83.73
2022-09-20T05:20:13.436Z,83.71
2022-09-20T05:23:04.047Z,83.93
2022-09-20T05:25:45.025Z,84.04
2022-09-20T05:28:21.753Z,84.61
2022-09-20T05:30:51.081Z,83.94
2022-09-20T05:33:22.563Z,83.19
2022-09-20T05:36:02.367Z,83.77
2022-09-20T05:38:35.530Z,83.43
2022-09-20T05:41:13.809Z,83.91
2022-09-20T05:43:51.956Z,84.31
2022-09-20T05:46:27.660Z,83.72
2022-09-20T05:48:58.242Z,84.28
2022-09-20T05:51:48.358Z,84.73
2022-09-20T05:54:35.464Z,85.03
2022-09-20T05:57:16.120Z,84.74
2022-09-20T05:59:57.866Z,85.32
2022-09-20T06:02:36.130Z,84.41
2022-09-20T06:05:11.484Z,84.95
2022-09-20T06:07:51.939Z,84.62
2022-09-20T06:10:43.864Z,85.48
2022-09-20T06:13:25.138Z,85.73
2022-09-20T06:15:59.044Z,85.61
2022-09-20T06:18:28.770Z,85.73
2022-09-20T06:21:03.325Z,85.73
2022-09-20T06:23:31.968Z,85.23
2022-09-20T06:26:03.729Z,85.36
2022-09-20T06:28:34.149Z,85.48
2022-09-20T06:31:07.252Z,84.84
2022-09-20T06:33:34.747Z,84.37
2022-09-20T06:36:21.751Z,84.71
2022-09-20T06:39:12.637Z,85.09
2022-09-20T06:41:40.741Z,84.84
2022-09-20T06:44:08.282Z,84.75
2022-09-20T06:46:38.442Z,84.63
2022-09-20T06:49:08.192Z,83.75
2022-09-20T06:51:37.160Z,83.08
2022-09-20T06:54:06.347Z,82.97
2022-09-20T06:56:36.613Z,82.07
2022-09-20T06:59:04.366Z,82.00
2022-09-20T07:01:32.268Z,82.10
2022-09-20T07:04:01.249Z,82.09
2022-09-20T07:06:29.189Z,82.38
2022-09-20T07:08:56.647Z,81.62
2022-09-20T07:11:24.443Z,82.05
2022-09-20T07:13:53.760Z,81.81
2022-09-20T07:16:21.412Z,80.79
2022-09-20T07:18:49.684Z,80.62
2022-09-20T07:21:19.956Z,80.19
2022-09-20T07:23:48.527Z,79.49
2022-09-20T07:26:19.373Z,79.58
2022-09-20T07:28:47.206Z,79.22
2022-09-20T07:31:14.684Z,78.65
2022-09-20T07:33:42.168Z,78.24
2022-09-20T07:36:12.234Z,77.95
2022-09-20T07:38:41.636Z,77.55
2022-09-20T07:41:10.464Z,77.49
2022-09-20T07:43:38.095Z,77.50
2022-09-20T07:46:05.978Z,77.78
2022-09-20T07:48:35.043Z,76.92
2022-09-20T07:51:08.417Z,77.52
2022-09-20T07:53:36.532Z,75.08
2022-09-20T07:56:07.226Z,73.84
2022-09-20T07:58:36.114Z,73.87
2022-09-20T08:01:05.348Z,73.58
2022-09-20T08:03:33.509Z,74.17
2022-09-20T08:06:01.929Z,73.02
2022-09-20T08:08:32.426Z,72.60
2022-09-20T08:11:05.290Z,72.66
2022-09-20T08:16:24.585Z,72.20
2022-09-20T08:18:54.023Z,71.67
2022-09-20T08:21:22.750Z,71.22
2022-09-20T08:23:50.398Z,71.19
2022-09-20T08:26:20.111Z,69.31
2022-09-20T08:28:52.621Z,69.22
2022-09-20T08:31:21.945Z,68.31
2022-09-20T08:33:50.432Z,69.16
2022-09-20T08:36:19.694Z,68.97
2022-09-20T08:41:38.861Z,67.47
2022-09-20T08:44:13.023Z,67.16
2022-09-20T08:46:43.447Z,66.38
2022-09-20T08:49:16.205Z,65.64
2022-09-20T08:51:48.659Z,66.75
2022-09-20T08:54:16.246Z,64.82
2022-09-20T08:56:44.416Z,65.49
2022-09-20T08:59:16.305Z,65.47
2022-09-20T09:01:43.784Z,64.29
2022-09-20T09:04:14.446Z,63.50
2022-09-20T09:06:42.514Z,64.54
2022-09-20T09:09:17.723Z,62.93
2022-09-20T09:11:46.068Z,62.87
2022-09-20T09:14:41.330Z,63.18
2022-09-20T09:17:10.312Z,62.68
2022-09-20T09:19:44.880Z,62.05
2022-09-20T09:22:13.141Z,61.01
2022-09-20T09:24:40.737Z,61.68
2022-09-20T09:27:14.761Z,62.68
2022-09-20T09:29:51.784Z,62.63
2022-09-20T09:32:23.430Z,62.52
2022-09-20T09:34:51.010Z,62.91
2022-09-20T09:37:28.868Z,61.12
2022-09-20T09:40:16.421Z,59.96
2022-09-20T09:42:52.227Z,59.14
2022-09-20T09:45:31.311Z,59.25
2022-09-20T09:48:01.415Z,58.32
2022-09-20T09:50:31.651Z,59.05
2022-09-20T09:53:02.818Z,57.57
2022-09-20T09:55:43.334Z,57.14
2022-09-20T09:58:21.157Z,57.29
2022-09-20T10:00:50.507Z,58.35
2022-09-20T10:03:29.960Z,56.43
2022-09-20T10:06:05.422Z,56.20
2022-09-20T10:08:43.186Z,56.90
2022-09-20T10:11:23.288Z,55.87
2022-09-20T10:13:56.391Z,55.73
2022-09-20T10:16:31.338Z,56.38
2022-09-20T10:19:03.441Z,55.09
2022-09-20T10:21:44.702Z,55.44
2022-09-20T10:24:19.962Z,53.09
2022-09-20T10:27:03.372Z,52.36
2022-09-20T10:29:41.812Z,49.35
2022-09-20T10:32:21.033Z,50.75
2022-09-20T10:35:02.741Z,52.50
2022-09-20T10:37:34.932Z,52.24
2022-09-20T10:40:10.590Z,49.48
2022-09-20T10:42:59.943Z,49.59
2022-09-20T10:45:59.570Z,49.45
2022-09-20T10:48:26.074Z,50.27
2022-09-20T10:50:59.636Z,52.08
2022-09-20T10:53:31.377Z,51.63
2022-09-20T10:56:07.495Z,48.95
2022-09-20T10:59:17.561Z,49.88
2022-09-20T11:01:54.938Z,51.17
2022-09-20T11:04:46.959Z,51.34
2022-09-20T11:07:19.637Z,49.21
2022-09-20T11:09:50.813Z,49.62
2022-09-20T11:12:24.700Z,49.77
2022-09-20T11:14:55.457Z,47.85
2022-09-20T11:17:26.237Z,50.75
2022-09-20T11:20:04.714Z,51.44
2022-09-20T11:22:40.068Z,52.69
2022-09-20T11:25:19.432Z,53.39
2022-09-20T11:27:51.237Z,52.85
2022-09-20T11:30:20.718Z,53.36
2022-09-20T11:32:50.699Z,51.94
2022-09-20T11:35:30.161Z,52.34
2022-09-20T11:38:06.290Z,52.83
2022-09-20T11:40:36.756Z,53.85
2022-09-20T11:43:07.220Z,55.69
2022-09-20T11:45:35.312Z,54.65
2022-09-20T11:48:05.137Z,55.17
2022-09-20T11:50:50.048Z,56.00
2022-09-20T11:53:28.003Z,55.47
2022-09-20T11:55:59.921Z,57.39
2022-09-20T11:58:27.714Z,58.17
2022-09-20T12:00:57.281Z,55.56
2022-09-20T12:03:32.130Z,56.51
2022-09-20T12:06:02.026Z,56.97
2022-09-20T12:08:32.182Z,55.60
2022-09-20T12:11:04.175Z,55.37
2022-09-20T12:13:32.815Z,57.31
2022-09-20T12:16:03.025Z,53.36
2022-09-20T12:18:37.242Z,54.23
2022-09-20T12:21:15.286Z,53.11
2022-09-20T12:24:04.937Z,54.27
2022-09-20T12:26:43.469Z,54.12
2022-09-20T12:29:53.048Z,55.37
2022-09-20T12:32:45.826Z,55.46
2022-09-20T12:35:56.399Z,61.78
2022-09-20T12:38:49.728Z,69.85
2022-09-20T12:41:27.841Z,68.02
2022-09-20T12:44:03.574Z,68.46
2022-09-20T12:46:34.998Z,68.56
2022-09-20T12:49:47.126Z,66.80
2022-09-20T12:52:53.475Z,68.39
2022-09-20T12:55:46.740Z,69.08
2022-09-20T12:58:35.717Z,68.23
2022-09-20T13:01:32.418Z,73.27
2022-09-20T13:04:37.449Z,75.29
2022-09-20T13:07:43.793Z,77.46
2022-09-20T13:10:29.059Z,82.13
2022-09-20T13:13:02.226Z,84.13
2022-09-20T13:15:31.921Z,85.20
2022-09-20T13:18:01.596Z,84.06
2022-09-20T13:20:31.333Z,85.04
2022-09-20T13:23:00.539Z,83.20
2022-09-20T13:25:28.371Z,83.34
2022-09-20T13:28:03.421Z,81.59
2022-09-20T13:30:32.599Z,81.22
2022-09-20T13:33:15.738Z,79.35
2022-09-20T13:35:44.457Z,78.41
2022-09-20T13:38:11.905Z,78.42
2022-09-20T13:40:42.248Z,78.54
2022-09-20T13:43:24.448Z,81.67
2022-09-20T13:45:54.535Z,80.63
2022-09-20T13:48:25.606Z,79.10
2022-09-20T13:50:53.910Z,79.75
2022-09-20T13:53:40.579Z,81.58
2022-09-20T13:56:11.092Z,81.29
2022-09-20T13:58:39.865Z,80.64
2022-09-20T14:01:09.589Z,80.99
2022-09-20T14:03:37.421Z,75.96
2022-09-20T14:06:08.565Z,76.81
2022-09-20T14:08:38.909Z,71.88
2022-09-20T14:11:07.922Z,75.73
2022-09-20T14:13:41.793Z,77.17
2022-09-20T14:16:09.875Z,77.37
2022-09-20T14:18:38.220Z,77.33
2022-09-20T14:21:07.668Z,75.85
2022-09-20T14:23:50.787Z,76.61
2022-09-20T14:26:27.660Z,76.49
2022-09-20T14:28:56.641Z,69.54
2022-09-20T14:31:26.522Z,64.42
2022-09-20T14:33:55.681Z,69.36
2022-09-20T14:36:24.936Z,66.99
2022-09-20T14:40:08.425Z,65.14
2022-09-20T14:42:37.314Z,64.80
2022-09-20T14:45:07.385Z,62.96
2022-09-20T14:47:40.501Z,63.39
2022-09-20T14:50:24.781Z,66.68
2022-09-20T14:53:26.140Z,67.41
2022-09-20T14:55:59.967Z,63.64
2022-09-20T14:58:27.750Z,64.78
2022-09-20T15:00:59.180Z,67.27
2022-09-20T15:03:28.644Z,70.37
2022-09-20T15:05:56.470Z,68.45
2022-09-20T15:08:24.539Z,65.11
2022-09-20T15:10:52.104Z,67.04
2022-09-20T15:13:19.783Z,68.59
2022-09-20T15:15:50.753Z,66.14
2022-09-20T15:18:22.614Z,65.56
2022-09-20T15:20:50.588Z,66.20
2022-09-20T15:23:18.453Z,64.80
2022-09-20T15:25:46.243Z,66.26
2022-09-20T15:28:17.254Z,65.83
2022-09-20T15:30:44.996Z,65.19
2022-09-20T15:33:13.315Z,64.96
2022-09-20T15:35:43.369Z,63.29
2022-09-20T15:38:11.991Z,62.50
2022-09-20T15:40:40.700Z,62.05
2022-09-20T15:43:09.518Z,62.94
2022-09-20T15:45:37.737Z,62.23
2022-09-20T15:48:05.609Z,62.63
2022-09-20T15:50:33.275Z,61.32
2022-09-20T15:53:02.186Z,62.44
2022-09-20T15:55:29.815Z,62.09
2022-09-20T15:57:57.517Z,61.54
2022-09-20T16:00:25.341Z,63.25
2022-09-20T16:02:52.857Z,62.16
2022-09-20T16:05:20.510Z,63.09
2022-09-20T16:07:48.480Z,63.10
2022-09-20T16:10:17.462Z,64.03
2022-09-20T16:12:45.174Z,63.80
2022-09-20T16:15:12.725Z,63.98
2022-09-20T16:17:57.982Z,64.65
2022-09-20T16:20:25.586Z,66.20
2022-09-20T16:22:53.229Z,65.51
2022-09-20T16:25:22.134Z,65.00
2022-09-20T16:27:49.736Z,64.21
2022-09-20T16:30:17.605Z,65.84
2022-09-20T16:32:46.251Z,66.59
2022-09-20T16:35:13.920Z,65.40
2022-09-20T16:37:41.470Z,66.11
2022-09-20T16:40:11.191Z,65.58
2022-09-20T16:42:40.211Z,65.72
2022-09-20T16:45:08.512Z,66.16
2022-09-20T16:47:41.007Z,66.09
2022-09-20T16:50:11.666Z,66.54
2022-09-20T16:52:39.792Z,68.23
2022-09-20T16:55:10.960Z,66.85
2022-09-20T16:57:39.833Z,68.27
2022-09-20T17:00:08.883Z,67.48
2022-09-20T17:02:36.877Z,67.74
2022-09-20T17:05:05.293Z,67.50
2022-09-20T17:07:33.607Z,67.78
2022-09-20T17:13:03.329Z,67.55
2022-09-20T17:15:31.017Z,69.22
2022-09-20T17:17:58.656Z,69.01
2022-09-20T17:20:29.189Z,65.95
2022-09-20T17:22:56.908Z,66.67
2022-09-20T17:25:30.202Z,67.82
2022-09-20T17:27:58.483Z,67.74
2022-09-20T17:30:27.437Z,68.60
2022-09-20T17:32:55.857Z,69.89
2022-09-20T17:35:23.374Z,70.98
2022-09-20T17:37:52.223Z,71.27
2022-09-20T17:40:19.827Z,71.65
2022-09-20T17:42:47.425Z,71.81
2022-09-20T17:45:16.681Z,72.31
2022-09-20T17:47:45.864Z,71.48
2022-09-20T17:50:15.183Z,72.54
2022-09-20T17:52:42.948Z,71.85
2022-09-20T17:55:11.202Z,72.85
2022-09-20T17:57:39.004Z,74.01
2022-09-20T18:00:07.959Z,74.57
2022-09-20T18:02:35.587Z,74.60
2022-09-20T18:05:04.569Z,74.13
2022-09-20T18:07:34.332Z,74.28
2022-09-20T18:10:02.231Z,74.22
2022-09-20T18:12:29.927Z,74.27
2022-09-20T18:14:57.536Z,75.32
2022-09-20T18:17:27.967Z,72.19
2022-09-20T18:19:55.510Z,70.87
2022-09-20T18:22:24.723Z,71.21
2022-09-20T18:24:52.555Z,72.59
2022-09-20T18:27:20.406Z,72.03
2022-09-20T18:29:48.136Z,70.92
2022-09-20T18:32:16.515Z,72.54
2022-09-20T18:34:44.177Z,72.71
2022-09-20T18:37:14.851Z,73.32
2022-09-20T18:39:44.215Z,74.51
2022-09-20T18:42:11.903Z,76.57
2022-09-20T18:44:40.136Z,76.09
2022-09-20T18:47:07.896Z,76.09
2022-09-20T18:49:35.598Z,76.17
2022-09-20T18:52:03.824Z,77.44
2022-09-20T18:54:33.215Z,77.32
2022-09-20T18:57:06.744Z,77.79
2022-09-20T18:59:34.736Z,78.06
2022-09-20T19:02:18.384Z,79.24
2022-09-20T19:05:08.509Z,80.06
2022-09-20T19:07:43.724Z,78.31
2022-09-20T19:10:19.258Z,78.65
2022-09-20T19:13:02.198Z,78.35
2022-09-20T19:15:54.137Z,78.62
2022-09-20T19:18:36.259Z,78.58
2022-09-20T19:21:14.612Z,78.01
2022-09-20T19:24:03.333Z,78.00
2022-09-20T19:26:32.437Z,77.76
2022-09-20T19:29:02.101Z,78.01
2022-09-20T19:31:31.326Z,79.07
2022-09-20T19:34:01.053Z,79.29
2022-09-20T19:36:38.588Z,79.08
2022-09-20T19:39:11.696Z,78.47
2022-09-20T19:41:48.358Z,78.96
2022-09-20T19:44:26.691Z,80.48
2022-09-20T19:47:03.896Z,80.91
2022-09-20T19:49:41.648Z,81.60
2022-09-20T19:52:11.504Z,81.96
2022-09-20T19:54:42.208Z,82.78
2022-09-20T19:57:19.411Z,82.61
2022-09-20T19:59:49.297Z,83.51
2022-09-20T20:02:17.666Z,83.83
2022-09-20T20:04:46.291Z,84.16
2022-09-20T20:07:21.548Z,84.48
2022-09-20T20:09:53.231Z,84.23
2022-09-20T20:12:26.020Z,83.93
2022-09-20T20:15:04.785Z,84.62
2022-09-20T20:17:46.148Z,84.28
2022-09-20T20:20:23.389Z,84.96
2022-09-20T20:23:05.844Z,85.27
2022-09-20T20:25:37.548Z,84.90
2022-09-20T20:28:05.123Z,85.11
2022-09-20T20:30:44.498Z,84.43
2022-09-20T20:33:14.895Z,82.84
2022-09-20T20:35:42.505Z,81.71
2022-09-20T20:38:11.496Z,82.32
2022-09-20T20:40:40.256Z,83.16
2022-09-20T20:43:09.810Z,84.35
2022-09-20T20:45:40.037Z,84.08
2022-09-20T20:48:09.342Z,84.34
2022-09-20T20:50:37.068Z,84.75
2022-09-20T20:53:06.684Z,85.53
2022-09-20T20:55:34.254Z,85.83
2022-09-20T20:58:01.888Z,85.85
2022-09-20T21:00:57.057Z,86.55
2022-09-20T21:03:43.276Z,86.44
2022-09-20T21:07:28.955Z,86.17
2022-09-20T21:10:18.097Z,87.33
2022-09-20T21:13:12.402Z,87.57
2022-09-20T21:15:42.207Z,86.97
2022-09-20T21:18:13.384Z,87.16
2022-09-20T21:21:02.619Z,87.28
2022-09-20T21:23:34.864Z,87.63
2022-09-20T21:26:09.099Z,88.20
2022-09-20T21:28:37.866Z,88.84
2022-09-20T21:31:10.717Z,89.06
2022-09-20T21:33:40.669Z,88.88
2022-09-20T21:36:09.383Z,87.14
2022-09-20T21:38:37.536Z,87.22
2022-09-20T21:41:11.260Z,86.92
2022-09-20T21:43:41.767Z,86.26
2022-09-20T21:46:18.938Z,86.79
2022-09-20T21:48:47.477Z,86.95
2022-09-20T21:51:16.570Z,87.04
2022-09-20T21:53:44.013Z,87.52
2022-09-20T21:56:13.416Z,87.42
2022-09-20T21:58:41.557Z,87.20
2022-09-20T22:01:11.242Z,87.33
2022-09-20T22:03:41.558Z,86.95
2022-09-20T22:06:11.514Z,87.81
2022-09-20T22:08:40.694Z,88.33
2022-09-20T22:11:12.219Z,89.41
2022-09-20T22:13:42.837Z,89.53
2022-09-20T22:16:12.258Z,88.99
2022-09-20T22:18:42.859Z,89.41
2022-09-20T22:21:11.910Z,89.95
2022-09-20T22:23:49.017Z,89.83
2022-09-20T22:26:21.594Z,89.40
2022-09-20T22:28:56.309Z,89.66
2022-09-20T22:31:27.195Z,89.84
2022-09-20T22:33:58.037Z,89.66
2022-09-20T22:36:27.159Z,89.67
2022-09-20T22:38:55.005Z,89.60
2022-09-20T22:41:26.320Z,89.87
2022-09-20T22:43:53.978Z,89.51
2022-09-20T22:46:23.559Z,89.09
2022-09-20T22:48:51.396Z,89.59
2022-09-20T22:51:21.853Z,88.59
2022-09-20T22:53:49.705Z,88.96
2022-09-20T22:56:21.102Z,89.17
2022-09-20T22:58:50.069Z,89.60
2022-09-20T23:01:23.725Z,89.42
2022-09-20T23:03:55.193Z,89.09
2022-09-20T23:06:27.849Z,89.63
2022-09-20T23:08:57.078Z,89.32
2022-09-20T23:11:25.283Z,89.70
2022-09-20T23:13:54.553Z,89.78
2022-09-20T23:16:24.314Z,90.11
2022-09-20T23:18:53.086Z,89.85
2022-09-20T23:21:21.304Z,89.65
2022-09-20T23:23:53.382Z,88.83
2022-09-20T23:26:21.128Z,88.89
2022-09-20T23:28:55.448Z,89.48
2022-09-20T23:31:23.288Z,89.24
2022-09-20T23:33:52.371Z,89.21
2022-09-20T23:36:20.759Z,88.88
2022-09-20T23:38:50.239Z,88.90
2022-09-20T23:41:20.587Z,89.31
2022-09-20T23:43:48.426Z,89.20
2022-09-20T23:46:17.316Z,88.90
2022-09-20T23:48:45.041Z,87.87
2022-09-20T23:51:13.939Z,88.65
2022-09-20T23:53:41.695Z,88.42
2022-09-20T23:56:11.461Z,88.50
2022-09-20T23:58:39.886Z,88.65
